Accueil
METAR-TAF:

METAR-TAF

Aéroports :

Aéroport d'Ostende-Bruges

Ostende, Belgique

latitude: 51-12N, longitude: 002-52E, altitude: 4 m

Observation

Le bulletin a été fait il y a 38 minutes, à 07:20 UTC
Vent 4 kt de nord/nord-ouest, variant entre ouest et nord-est
Température 16°C
Humidité 77%
Pression 1013 hPa
Visibilité 10 km ou plus
Quelques nuages à une hauteur de 3500 ft

METAR: EBOS 220720Z 34004KT 270V040 9999 FEW035 16/12 Q1013 NOSIG

Heure: 09:58 (07:58 UTC)

Prévision

Le bulletin a été fait il y a 2 heures et 48 minutes, à 05:10 UTC
Prévision valable du 22 à 06 UTC au 23 à 12 UTC
Vent 8 kt de nord
Visibilité 10 km ou plus
Quelques nuages à une hauteur de 4500 ft, Cumulus congestus.
Temporairement
du 23 à 05 UTC au 23 à 08 UTC
Visibilité: 4000 m
Nuages fragmentés à une hauteur de 1200 ft
pluie

TAF: EBOS 220510Z 2206/2312 36008KT 9999 FEW045TCU TEMPO 2305/2308 4000 RA BKN012

Observations et prévisions météorologiques de plus de 4000 aéroports (messages METAR et TAF).

Les stations disponibles sont représentées par des disques jaunes et rouges sur la carte.

Passer la souris dessus pour voir le nom de la station.

Cliquer dessus pour voir les observations et prévisions météorologiques.

Pour changer de carte: cliquez sur les boutons verts avec une croix noire pour zoomer, sur le bouton vert avec un tiret pour effectuer un zoom arrière, ou sur les flèches vertes pour les cartes adjacentes.


METAR-TAF: